sensor_id;sensor_type;location;lat;lon;timestamp;P1;durP1;ratioP1;P2;durP2;ratioP2
830;SDS011;397;50.564;7.272;2022-07-10T00:01:41;6.70;;;2.13;;
830;SDS011;397;50.564;7.272;2022-07-10T00:04:09;3.83;;;2.30;;
830;SDS011;397;50.564;7.272;2022-07-10T00:06:36;6.47;;;2.30;;
830;SDS011;397;50.564;7.272;2022-07-10T00:09:06;6.90;;;1.97;;
830;SDS011;397;50.564;7.272;2022-07-10T00:11:33;3.90;;;2.27;;
830;SDS011;397;50.564;7.272;2022-07-10T00:14:01;6.10;;;2.47;;
830;SDS011;397;50.564;7.272;2022-07-10T00:16:29;9.83;;;3.40;;
830;SDS011;397;50.564;7.272;2022-07-10T00:18:57;6.43;;;1.77;;
830;SDS011;397;50.564;7.272;2022-07-10T00:21:24;4.60;;;2.23;;
830;SDS011;397;50.564;7.272;2022-07-10T00:23:52;5.10;;;2.03;;
830;SDS011;397;50.564;7.272;2022-07-10T00:26:19;5.37;;;2.10;;
830;SDS011;397;50.564;7.272;2022-07-10T00:28:47;5.60;;;2.47;;
830;SDS011;397;50.564;7.272;2022-07-10T00:31:14;3.43;;;1.90;;
830;SDS011;397;50.564;7.272;2022-07-10T00:33:42;6.70;;;1.80;;
830;SDS011;397;50.564;7.272;2022-07-10T00:36:10;8.40;;;2.70;;
830;SDS011;397;50.564;7.272;2022-07-10T00:38:37;4.27;;;1.83;;
830;SDS011;397;50.564;7.272;2022-07-10T00:41:05;5.17;;;1.60;;
830;SDS011;397;50.564;7.272;2022-07-10T00:43:51;5.67;;;1.53;;
830;SDS011;397;50.564;7.272;2022-07-10T00:46:20;4.33;;;1.37;;
830;SDS011;397;50.564;7.272;2022-07-10T00:48:48;6.37;;;1.93;;
830;SDS011;397;50.564;7.272;2022-07-10T00:51:17;5.40;;;2.27;;
830;SDS011;397;50.564;7.272;2022-07-10T00:53:45;7.20;;;2.27;;
830;SDS011;397;50.564;7.272;2022-07-10T00:56:18;3.37;;;1.63;;
830;SDS011;397;50.564;7.272;2022-07-10T00:58:47;4.27;;;1.63;;
830;SDS011;397;50.564;7.272;2022-07-10T01:01:15;6.93;;;2.17;;
830;SDS011;397;50.564;7.272;2022-07-10T01:03:44;3.60;;;2.27;;
830;SDS011;397;50.564;7.272;2022-07-10T01:06:12;4.20;;;1.53;;
830;SDS011;397;50.564;7.272;2022-07-10T01:08:41;4.87;;;1.80;;
830;SDS011;397;50.564;7.272;2022-07-10T01:11:10;3.07;;;1.57;;
830;SDS011;397;50.564;7.272;2022-07-10T01:13:37;6.80;;;1.50;;
830;SDS011;397;50.564;7.272;2022-07-10T01:16:06;4.40;;;2.07;;
830;SDS011;397;50.564;7.272;2022-07-10T01:18:34;4.87;;;1.87;;
830;SDS011;397;50.564;7.272;2022-07-10T01:21:01;6.53;;;2.37;;
830;SDS011;397;50.564;7.272;2022-07-10T01:23:29;5.00;;;2.10;;
830;SDS011;397;50.564;7.272;2022-07-10T01:25:56;4.80;;;1.70;;
830;SDS011;397;50.564;7.272;2022-07-10T01:28:24;3.67;;;1.73;;
830;SDS011;397;50.564;7.272;2022-07-10T01:30:54;7.00;;;1.80;;
830;SDS011;397;50.564;7.272;2022-07-10T01:33:22;4.90;;;1.80;;
830;SDS011;397;50.564;7.272;2022-07-10T01:35:49;6.07;;;2.10;;
830;SDS011;397;50.564;7.272;2022-07-10T01:38:17;4.47;;;2.23;;
830;SDS011;397;50.564;7.272;2022-07-10T01:40:45;7.57;;;2.10;;
830;SDS011;397;50.564;7.272;2022-07-10T01:43:12;5.23;;;1.80;;
830;SDS011;397;50.564;7.272;2022-07-10T01:45:39;4.30;;;2.07;;
830;SDS011;397;50.564;7.272;2022-07-10T01:48:09;4.83;;;1.93;;
830;SDS011;397;50.564;7.272;2022-07-10T01:50:36;5.50;;;2.43;;
830;SDS011;397;50.564;7.272;2022-07-10T01:53:04;5.33;;;2.40;;
830;SDS011;397;50.564;7.272;2022-07-10T01:55:32;4.67;;;1.93;;
830;SDS011;397;50.564;7.272;2022-07-10T01:58:00;3.30;;;2.10;;
830;SDS011;397;50.564;7.272;2022-07-10T02:00:27;4.43;;;1.87;;
830;SDS011;397;50.564;7.272;2022-07-10T02:06:17;6.90;;;2.37;;
830;SDS011;397;50.564;7.272;2022-07-10T02:08:44;5.23;;;2.77;;
830;SDS011;397;50.564;7.272;2022-07-10T02:11:12;5.97;;;2.80;;
830;SDS011;397;50.564;7.272;2022-07-10T02:13:39;4.70;;;2.70;;
830;SDS011;397;50.564;7.272;2022-07-10T02:16:07;5.30;;;2.30;;
830;SDS011;397;50.564;7.272;2022-07-10T02:18:35;7.13;;;2.70;;
830;SDS011;397;50.564;7.272;2022-07-10T02:21:04;6.37;;;2.70;;
830;SDS011;397;50.564;7.272;2022-07-10T02:23:32;3.83;;;2.77;;
830;SDS011;397;50.564;7.272;2022-07-10T02:26:00;5.20;;;2.20;;
830;SDS011;397;50.564;7.272;2022-07-10T02:28:28;6.13;;;3.33;;
830;SDS011;397;50.564;7.272;2022-07-10T02:30:56;5.90;;;2.53;;
830;SDS011;397;50.564;7.272;2022-07-10T02:33:24;5.87;;;2.63;;
830;SDS011;397;50.564;7.272;2022-07-10T02:35:52;12.50;;;2.30;;
830;SDS011;397;50.564;7.272;2022-07-10T02:38:19;6.60;;;2.30;;
830;SDS011;397;50.564;7.272;2022-07-10T02:40:47;7.30;;;2.70;;
830;SDS011;397;50.564;7.272;2022-07-10T02:43:14;9.40;;;2.10;;
830;SDS011;397;50.564;7.272;2022-07-10T02:45:42;4.30;;;2.10;;
830;SDS011;397;50.564;7.272;2022-07-10T02:48:09;6.63;;;2.70;;
830;SDS011;397;50.564;7.272;2022-07-10T02:50:37;5.40;;;2.40;;
830;SDS011;397;50.564;7.272;2022-07-10T02:53:04;3.63;;;2.10;;
830;SDS011;397;50.564;7.272;2022-07-10T02:55:32;4.50;;;2.83;;
830;SDS011;397;50.564;7.272;2022-07-10T02:57:59;3.60;;;2.30;;
830;SDS011;397;50.564;7.272;2022-07-10T03:00:27;6.57;;;2.20;;
830;SDS011;397;50.564;7.272;2022-07-10T03:02:55;5.10;;;2.37;;
830;SDS011;397;50.564;7.272;2022-07-10T03:05:23;8.90;;;2.67;;
830;SDS011;397;50.564;7.272;2022-07-10T03:07:50;6.60;;;3.07;;
830;SDS011;397;50.564;7.272;2022-07-10T03:10:18;4.07;;;2.10;;
830;SDS011;397;50.564;7.272;2022-07-10T03:12:45;4.73;;;2.53;;
830;SDS011;397;50.564;7.272;2022-07-10T03:15:13;7.03;;;2.43;;
830;SDS011;397;50.564;7.272;2022-07-10T03:17:41;5.30;;;2.97;;
830;SDS011;397;50.564;7.272;2022-07-10T03:20:09;4.87;;;3.23;;
830;SDS011;397;50.564;7.272;2022-07-10T03:22:37;4.37;;;2.40;;
830;SDS011;397;50.564;7.272;2022-07-10T03:25:05;6.30;;;3.20;;
830;SDS011;397;50.564;7.272;2022-07-10T03:27:33;4.47;;;2.43;;
830;SDS011;397;50.564;7.272;2022-07-10T03:30:00;4.07;;;2.13;;
830;SDS011;397;50.564;7.272;2022-07-10T03:32:29;5.30;;;2.07;;
830;SDS011;397;50.564;7.272;2022-07-10T03:34:56;5.20;;;2.40;;
830;SDS011;397;50.564;7.272;2022-07-10T03:37:24;4.90;;;2.23;;
830;SDS011;397;50.564;7.272;2022-07-10T03:39:51;4.27;;;2.40;;
830;SDS011;397;50.564;7.272;2022-07-10T03:42:19;9.33;;;2.53;;
830;SDS011;397;50.564;7.272;2022-07-10T03:44:46;4.90;;;2.17;;
830;SDS011;397;50.564;7.272;2022-07-10T03:47:14;4.23;;;2.03;;
830;SDS011;397;50.564;7.272;2022-07-10T03:49:41;5.13;;;2.10;;
830;SDS011;397;50.564;7.272;2022-07-10T03:52:09;7.73;;;2.50;;
830;SDS011;397;50.564;7.272;2022-07-10T03:54:36;9.30;;;2.93;;
830;SDS011;397;50.564;7.272;2022-07-10T03:57:04;7.13;;;1.93;;
830;SDS011;397;50.564;7.272;2022-07-10T03:59:50;5.40;;;3.03;;
830;SDS011;397;50.564;7.272;2022-07-10T04:02:17;6.73;;;2.60;;
830;SDS011;397;50.564;7.272;2022-07-10T04:04:45;4.33;;;2.80;;
830;SDS011;397;50.564;7.272;2022-07-10T04:07:12;4.83;;;2.30;;
830;SDS011;397;50.564;7.272;2022-07-10T04:09:40;8.20;;;2.40;;
830;SDS011;397;50.564;7.272;2022-07-10T04:12:07;3.53;;;1.50;;
830;SDS011;397;50.564;7.272;2022-07-10T04:14:35;7.63;;;2.07;;
830;SDS011;397;50.564;7.272;2022-07-10T04:17:03;6.60;;;2.30;;
830;SDS011;397;50.564;7.272;2022-07-10T04:19:30;4.33;;;2.07;;
830;SDS011;397;50.564;7.272;2022-07-10T04:21:58;5.77;;;2.17;;
830;SDS011;397;50.564;7.272;2022-07-10T04:24:25;6.23;;;2.10;;
830;SDS011;397;50.564;7.272;2022-07-10T04:26:53;3.40;;;2.13;;
830;SDS011;397;50.564;7.272;2022-07-10T04:29:20;5.57;;;2.20;;
830;SDS011;397;50.564;7.272;2022-07-10T04:31:48;4.77;;;2.10;;
830;SDS011;397;50.564;7.272;2022-07-10T04:34:16;6.07;;;2.37;;
830;SDS011;397;50.564;7.272;2022-07-10T04:36:43;8.17;;;1.93;;
830;SDS011;397;50.564;7.272;2022-07-10T04:39:11;5.33;;;2.10;;
830;SDS011;397;50.564;7.272;2022-07-10T04:41:38;8.23;;;2.40;;
830;SDS011;397;50.564;7.272;2022-07-10T04:44:05;3.70;;;2.20;;
830;SDS011;397;50.564;7.272;2022-07-10T04:46:33;4.77;;;1.97;;
830;SDS011;397;50.564;7.272;2022-07-10T04:49:00;5.57;;;1.87;;
830;SDS011;397;50.564;7.272;2022-07-10T04:51:28;4.93;;;3.07;;
830;SDS011;397;50.564;7.272;2022-07-10T04:53:56;6.00;;;2.37;;
830;SDS011;397;50.564;7.272;2022-07-10T04:56:24;5.60;;;2.27;;
830;SDS011;397;50.564;7.272;2022-07-10T04:58:51;6.10;;;1.93;;
830;SDS011;397;50.564;7.272;2022-07-10T05:01:19;4.80;;;1.70;;
830;SDS011;397;50.564;7.272;2022-07-10T05:03:47;6.40;;;1.83;;
830;SDS011;397;50.564;7.272;2022-07-10T05:06:14;9.83;;;2.37;;
830;SDS011;397;50.564;7.272;2022-07-10T05:08:42;9.10;;;1.80;;
830;SDS011;397;50.564;7.272;2022-07-10T05:11:10;9.87;;;2.50;;
830;SDS011;397;50.564;7.272;2022-07-10T05:13:37;7.10;;;2.10;;
830;SDS011;397;50.564;7.272;2022-07-10T05:16:05;6.70;;;2.23;;
830;SDS011;397;50.564;7.272;2022-07-10T05:18:33;4.77;;;1.80;;
830;SDS011;397;50.564;7.272;2022-07-10T05:21:00;3.57;;;2.10;;
830;SDS011;397;50.564;7.272;2022-07-10T05:23:28;5.60;;;2.00;;
830;SDS011;397;50.564;7.272;2022-07-10T05:25:55;6.63;;;1.90;;
830;SDS011;397;50.564;7.272;2022-07-10T05:28:23;4.10;;;1.53;;
830;SDS011;397;50.564;7.272;2022-07-10T05:30:51;8.67;;;2.17;;
830;SDS011;397;50.564;7.272;2022-07-10T05:33:18;5.43;;;1.60;;
830;SDS011;397;50.564;7.272;2022-07-10T05:35:46;5.73;;;1.73;;
830;SDS011;397;50.564;7.272;2022-07-10T05:38:13;5.80;;;2.30;;
830;SDS011;397;50.564;7.272;2022-07-10T05:40:43;6.83;;;2.40;;
830;SDS011;397;50.564;7.272;2022-07-10T05:43:10;6.87;;;2.03;;
830;SDS011;397;50.564;7.272;2022-07-10T05:45:38;6.60;;;2.13;;
830;SDS011;397;50.564;7.272;2022-07-10T05:48:05;5.90;;;2.27;;
830;SDS011;397;50.564;7.272;2022-07-10T05:50:33;6.70;;;2.13;;
830;SDS011;397;50.564;7.272;2022-07-10T05:53:00;11.23;;;2.40;;
830;SDS011;397;50.564;7.272;2022-07-10T05:55:28;7.10;;;1.90;;
830;SDS011;397;50.564;7.272;2022-07-10T05:57:55;4.70;;;2.27;;
830;SDS011;397;50.564;7.272;2022-07-10T06:00:24;5.13;;;2.13;;
830;SDS011;397;50.564;7.272;2022-07-10T06:02:52;8.73;;;2.03;;
830;SDS011;397;50.564;7.272;2022-07-10T06:05:19;5.20;;;2.17;;
830;SDS011;397;50.564;7.272;2022-07-10T06:07:47;10.60;;;2.00;;
830;SDS011;397;50.564;7.272;2022-07-10T06:10:15;8.90;;;2.00;;
830;SDS011;397;50.564;7.272;2022-07-10T06:12:42;5.23;;;2.20;;
830;SDS011;397;50.564;7.272;2022-07-10T06:15:10;7.83;;;2.23;;
830;SDS011;397;50.564;7.272;2022-07-10T06:17:38;4.50;;;2.17;;
830;SDS011;397;50.564;7.272;2022-07-10T06:20:06;5.77;;;2.50;;
830;SDS011;397;50.564;7.272;2022-07-10T06:22:34;5.83;;;2.70;;
830;SDS011;397;50.564;7.272;2022-07-10T06:25:05;5.10;;;2.10;;
830;SDS011;397;50.564;7.272;2022-07-10T06:27:34;4.93;;;2.17;;
830;SDS011;397;50.564;7.272;2022-07-10T06:30:01;5.40;;;2.27;;
830;SDS011;397;50.564;7.272;2022-07-10T06:32:30;8.10;;;2.10;;
830;SDS011;397;50.564;7.272;2022-07-10T06:34:57;4.30;;;2.00;;
830;SDS011;397;50.564;7.272;2022-07-10T06:37:25;5.40;;;2.10;;
830;SDS011;397;50.564;7.272;2022-07-10T06:39:52;8.80;;;2.03;;
830;SDS011;397;50.564;7.272;2022-07-10T06:42:20;5.00;;;1.90;;
830;SDS011;397;50.564;7.272;2022-07-10T06:44:47;9.17;;;2.27;;
830;SDS011;397;50.564;7.272;2022-07-10T06:47:16;7.30;;;2.27;;
830;SDS011;397;50.564;7.272;2022-07-10T06:50:04;5.67;;;2.30;;
830;SDS011;397;50.564;7.272;2022-07-10T06:52:32;4.80;;;1.90;;
830;SDS011;397;50.564;7.272;2022-07-10T06:55:01;5.57;;;2.30;;
830;SDS011;397;50.564;7.272;2022-07-10T06:57:29;5.37;;;2.30;;
830;SDS011;397;50.564;7.272;2022-07-10T06:59:57;5.40;;;2.17;;
830;SDS011;397;50.564;7.272;2022-07-10T07:02:24;5.57;;;2.37;;
830;SDS011;397;50.564;7.272;2022-07-10T07:04:52;5.43;;;2.30;;
830;SDS011;397;50.564;7.272;2022-07-10T07:07:19;5.20;;;1.77;;
830;SDS011;397;50.564;7.272;2022-07-10T07:09:47;3.70;;;1.93;;
830;SDS011;397;50.564;7.272;2022-07-10T07:12:16;4.80;;;1.80;;
830;SDS011;397;50.564;7.272;2022-07-10T07:14:44;6.03;;;2.17;;
830;SDS011;397;50.564;7.272;2022-07-10T07:17:12;4.77;;;2.23;;
830;SDS011;397;50.564;7.272;2022-07-10T07:19:42;4.40;;;2.10;;
830;SDS011;397;50.564;7.272;2022-07-10T07:22:27;7.20;;;2.83;;
830;SDS011;397;50.564;7.272;2022-07-10T07:25:13;6.50;;;2.60;;
830;SDS011;397;50.564;7.272;2022-07-10T07:27:41;3.57;;;1.87;;
830;SDS011;397;50.564;7.272;2022-07-10T07:30:12;5.57;;;1.70;;
830;SDS011;397;50.564;7.272;2022-07-10T07:32:44;6.50;;;2.43;;
830;SDS011;397;50.564;7.272;2022-07-10T07:35:15;4.47;;;2.27;;
830;SDS011;397;50.564;7.272;2022-07-10T07:37:47;5.57;;;2.60;;
830;SDS011;397;50.564;7.272;2022-07-10T07:40:18;9.40;;;2.50;;
830;SDS011;397;50.564;7.272;2022-07-10T07:42:48;5.63;;;2.87;;
830;SDS011;397;50.564;7.272;2022-07-10T07:45:17;4.13;;;2.07;;
830;SDS011;397;50.564;7.272;2022-07-10T07:47:48;9.67;;;2.83;;
830;SDS011;397;50.564;7.272;2022-07-10T07:50:18;5.17;;;2.50;;
830;SDS011;397;50.564;7.272;2022-07-10T07:52:47;6.33;;;2.57;;
830;SDS011;397;50.564;7.272;2022-07-10T07:55:16;7.63;;;2.30;;
830;SDS011;397;50.564;7.272;2022-07-10T07:57:44;5.87;;;2.93;;
830;SDS011;397;50.564;7.272;2022-07-10T08:00:13;9.27;;;3.67;;
830;SDS011;397;50.564;7.272;2022-07-10T08:05:31;8.30;;;4.57;;
830;SDS011;397;50.564;7.272;2022-07-10T08:07:59;4.90;;;3.70;;
830;SDS011;397;50.564;7.272;2022-07-10T08:10:29;5.63;;;3.80;;
830;SDS011;397;50.564;7.272;2022-07-10T08:12:57;8.70;;;4.20;;
830;SDS011;397;50.564;7.272;2022-07-10T08:15:24;5.33;;;3.00;;
830;SDS011;397;50.564;7.272;2022-07-10T08:17:53;6.43;;;4.23;;
830;SDS011;397;50.564;7.272;2022-07-10T08:20:25;5.50;;;4.00;;
830;SDS011;397;50.564;7.272;2022-07-10T08:22:53;10.83;;;4.33;;
830;SDS011;397;50.564;7.272;2022-07-10T08:25:21;4.00;;;3.17;;
830;SDS011;397;50.564;7.272;2022-07-10T08:27:49;4.70;;;3.20;;
830;SDS011;397;50.564;7.272;2022-07-10T08:30:17;5.27;;;3.03;;
830;SDS011;397;50.564;7.272;2022-07-10T08:32:45;5.80;;;3.67;;
830;SDS011;397;50.564;7.272;2022-07-10T08:35:12;5.50;;;2.97;;
830;SDS011;397;50.564;7.272;2022-07-10T08:37:40;7.27;;;3.30;;
830;SDS011;397;50.564;7.272;2022-07-10T08:40:09;9.23;;;3.23;;
830;SDS011;397;50.564;7.272;2022-07-10T08:42:38;4.10;;;3.27;;
830;SDS011;397;50.564;7.272;2022-07-10T08:45:11;5.50;;;2.47;;
830;SDS011;397;50.564;7.272;2022-07-10T08:47:40;4.77;;;2.40;;
830;SDS011;397;50.564;7.272;2022-07-10T08:50:23;5.77;;;2.17;;
830;SDS011;397;50.564;7.272;2022-07-10T08:55:40;2.90;;;1.80;;
830;SDS011;397;50.564;7.272;2022-07-10T08:58:10;7.90;;;2.50;;
830;SDS011;397;50.564;7.272;2022-07-10T09:00:40;5.30;;;2.13;;
830;SDS011;397;50.564;7.272;2022-07-10T09:03:07;5.00;;;2.20;;
830;SDS011;397;50.564;7.272;2022-07-10T09:05:35;7.10;;;3.00;;
830;SDS011;397;50.564;7.272;2022-07-10T09:08:02;4.10;;;2.50;;
830;SDS011;397;50.564;7.272;2022-07-10T09:10:30;4.87;;;2.00;;
830;SDS011;397;50.564;7.272;2022-07-10T09:12:59;8.43;;;2.77;;
830;SDS011;397;50.564;7.272;2022-07-10T09:15:30;6.23;;;1.87;;
830;SDS011;397;50.564;7.272;2022-07-10T09:17:59;4.10;;;2.10;;
830;SDS011;397;50.564;7.272;2022-07-10T09:20:35;6.03;;;2.13;;
830;SDS011;397;50.564;7.272;2022-07-10T09:23:17;5.43;;;2.40;;
830;SDS011;397;50.564;7.272;2022-07-10T09:25:46;4.00;;;2.20;;
830;SDS011;397;50.564;7.272;2022-07-10T09:28:19;7.20;;;2.67;;
830;SDS011;397;50.564;7.272;2022-07-10T09:31:04;3.30;;;2.03;;
830;SDS011;397;50.564;7.272;2022-07-10T09:33:32;2.73;;;1.77;;
830;SDS011;397;50.564;7.272;2022-07-10T09:36:04;5.13;;;2.20;;
830;SDS011;397;50.564;7.272;2022-07-10T09:41:18;3.70;;;2.10;;
830;SDS011;397;50.564;7.272;2022-07-10T09:43:48;4.40;;;2.03;;
830;SDS011;397;50.564;7.272;2022-07-10T09:46:23;6.43;;;2.77;;
830;SDS011;397;50.564;7.272;2022-07-10T09:49:28;6.20;;;2.60;;
830;SDS011;397;50.564;7.272;2022-07-10T09:51:32;5.97;;;3.07;;
830;SDS011;397;50.564;7.272;2022-07-10T09:54:01;5.50;;;3.37;;
830;SDS011;397;50.564;7.272;2022-07-10T09:59:13;4.10;;;2.43;;
830;SDS011;397;50.564;7.272;2022-07-10T10:01:49;4.67;;;2.53;;
830;SDS011;397;50.564;7.272;2022-07-10T10:04:18;3.83;;;2.73;;
830;SDS011;397;50.564;7.272;2022-07-10T10:06:52;7.63;;;4.00;;
830;SDS011;397;50.564;7.272;2022-07-10T10:09:41;4.87;;;3.03;;
830;SDS011;397;50.564;7.272;2022-07-10T10:12:16;6.17;;;3.53;;
830;SDS011;397;50.564;7.272;2022-07-10T10:14:45;4.97;;;3.87;;
830;SDS011;397;50.564;7.272;2022-07-10T10:17:13;4.90;;;2.90;;
830;SDS011;397;50.564;7.272;2022-07-10T10:19:44;6.13;;;3.20;;
830;SDS011;397;50.564;7.272;2022-07-10T10:22:30;4.80;;;3.03;;
830;SDS011;397;50.564;7.272;2022-07-10T10:24:59;6.10;;;3.20;;
830;SDS011;397;50.564;7.272;2022-07-10T10:27:29;6.00;;;4.03;;
830;SDS011;397;50.564;7.272;2022-07-10T10:29:57;6.27;;;3.40;;
830;SDS011;397;50.564;7.272;2022-07-10T10:32:27;7.03;;;3.90;;
830;SDS011;397;50.564;7.272;2022-07-10T10:34:55;10.30;;;4.20;;
830;SDS011;397;50.564;7.272;2022-07-10T10:37:38;5.70;;;3.90;;
830;SDS011;397;50.564;7.272;2022-07-10T10:40:09;4.37;;;3.30;;
830;SDS011;397;50.564;7.272;2022-07-10T10:42:38;4.83;;;3.67;;
830;SDS011;397;50.564;7.272;2022-07-10T10:58:37;4.80;;;4.03;;
830;SDS011;397;50.564;7.272;2022-07-10T11:01:25;5.80;;;4.10;;
830;SDS011;397;50.564;7.272;2022-07-10T11:04:13;4.43;;;4.03;;
830;SDS011;397;50.564;7.272;2022-07-10T11:06:46;7.50;;;4.37;;
830;SDS011;397;50.564;7.272;2022-07-10T11:09:25;5.47;;;3.53;;
830;SDS011;397;50.564;7.272;2022-07-10T11:12:08;4.50;;;4.00;;
830;SDS011;397;50.564;7.272;2022-07-10T11:14:38;5.03;;;4.63;;
830;SDS011;397;50.564;7.272;2022-07-10T11:17:09;5.00;;;4.10;;
830;SDS011;397;50.564;7.272;2022-07-10T11:19:37;5.30;;;4.13;;
830;SDS011;397;50.564;7.272;2022-07-10T11:28:06;6.10;;;5.03;;
830;SDS011;397;50.564;7.272;2022-07-10T11:30:44;6.13;;;4.80;;
830;SDS011;397;50.564;7.272;2022-07-10T11:33:17;5.83;;;4.93;;
830;SDS011;397;50.564;7.272;2022-07-10T11:35:47;8.63;;;6.10;;
830;SDS011;397;50.564;7.272;2022-07-10T11:38:19;5.63;;;5.03;;
830;SDS011;397;50.564;7.272;2022-07-10T11:43:46;10.53;;;6.23;;
830;SDS011;397;50.564;7.272;2022-07-10T11:46:18;7.13;;;5.40;;
830;SDS011;397;50.564;7.272;2022-07-10T11:48:47;7.23;;;5.27;;
830;SDS011;397;50.564;7.272;2022-07-10T11:51:17;6.70;;;6.03;;
830;SDS011;397;50.564;7.272;2022-07-10T11:53:55;10.23;;;6.13;;
830;SDS011;397;50.564;7.272;2022-07-10T11:56:24;8.73;;;4.93;;
830;SDS011;397;50.564;7.272;2022-07-10T11:58:53;5.73;;;5.00;;
830;SDS011;397;50.564;7.272;2022-07-10T12:01:22;5.13;;;4.73;;
830;SDS011;397;50.564;7.272;2022-07-10T12:03:56;6.50;;;4.63;;
830;SDS011;397;50.564;7.272;2022-07-10T12:06:25;6.30;;;3.87;;
830;SDS011;397;50.564;7.272;2022-07-10T12:08:54;5.70;;;3.67;;
830;SDS011;397;50.564;7.272;2022-07-10T12:11:22;5.77;;;3.83;;
830;SDS011;397;50.564;7.272;2022-07-10T12:13:50;5.17;;;3.23;;
830;SDS011;397;50.564;7.272;2022-07-10T12:16:20;5.57;;;3.50;;
830;SDS011;397;50.564;7.272;2022-07-10T12:18:48;5.50;;;3.10;;
830;SDS011;397;50.564;7.272;2022-07-10T12:21:16;5.03;;;2.73;;
830;SDS011;397;50.564;7.272;2022-07-10T12:23:44;4.40;;;3.50;;
830;SDS011;397;50.564;7.272;2022-07-10T12:26:12;8.90;;;2.93;;
830;SDS011;397;50.564;7.272;2022-07-10T12:28:50;6.60;;;3.50;;
830;SDS011;397;50.564;7.272;2022-07-10T12:31:22;4.97;;;4.10;;
830;SDS011;397;50.564;7.272;2022-07-10T12:33:53;6.47;;;3.00;;
830;SDS011;397;50.564;7.272;2022-07-10T12:36:27;3.27;;;2.40;;
830;SDS011;397;50.564;7.272;2022-07-10T12:39:32;4.63;;;3.00;;
830;SDS011;397;50.564;7.272;2022-07-10T12:42:06;5.40;;;2.93;;
830;SDS011;397;50.564;7.272;2022-07-10T12:47:08;5.13;;;2.10;;
830;SDS011;397;50.564;7.272;2022-07-10T12:49:54;4.97;;;2.80;;
830;SDS011;397;50.564;7.272;2022-07-10T12:52:34;4.53;;;2.67;;
830;SDS011;397;50.564;7.272;2022-07-10T12:55:08;3.63;;;2.70;;
830;SDS011;397;50.564;7.272;2022-07-10T12:57:55;3.80;;;2.90;;
830;SDS011;397;50.564;7.272;2022-07-10T13:00:29;3.17;;;2.43;;
830;SDS011;397;50.564;7.272;2022-07-10T13:03:03;4.00;;;2.87;;
830;SDS011;397;50.564;7.272;2022-07-10T13:08:06;4.00;;;2.93;;
830;SDS011;397;50.564;7.272;2022-07-10T13:10:58;5.37;;;3.43;;
830;SDS011;397;50.564;7.272;2022-07-10T13:13:25;3.20;;;2.90;;
830;SDS011;397;50.564;7.272;2022-07-10T13:15:54;4.23;;;3.43;;
830;SDS011;397;50.564;7.272;2022-07-10T13:18:26;5.97;;;3.40;;
830;SDS011;397;50.564;7.272;2022-07-10T13:20:55;5.73;;;2.93;;
830;SDS011;397;50.564;7.272;2022-07-10T13:23:24;5.13;;;2.97;;
830;SDS011;397;50.564;7.272;2022-07-10T13:25:52;7.70;;;3.40;;
830;SDS011;397;50.564;7.272;2022-07-10T13:28:20;7.57;;;3.47;;
830;SDS011;397;50.564;7.272;2022-07-10T13:30:48;5.80;;;3.07;;
830;SDS011;397;50.564;7.272;2022-07-10T13:33:15;6.40;;;3.83;;
830;SDS011;397;50.564;7.272;2022-07-10T13:35:43;6.80;;;3.90;;
830;SDS011;397;50.564;7.272;2022-07-10T13:38:11;4.33;;;2.80;;
830;SDS011;397;50.564;7.272;2022-07-10T13:40:38;4.03;;;3.10;;
830;SDS011;397;50.564;7.272;2022-07-10T13:43:06;4.43;;;2.70;;
830;SDS011;397;50.564;7.272;2022-07-10T13:45:34;4.40;;;2.80;;
830;SDS011;397;50.564;7.272;2022-07-10T13:48:04;5.90;;;2.83;;
830;SDS011;397;50.564;7.272;2022-07-10T13:50:31;3.30;;;1.90;;
830;SDS011;397;50.564;7.272;2022-07-10T13:52:59;3.70;;;2.17;;
830;SDS011;397;50.564;7.272;2022-07-10T13:55:26;3.80;;;2.03;;
830;SDS011;397;50.564;7.272;2022-07-10T13:57:54;3.30;;;2.33;;
830;SDS011;397;50.564;7.272;2022-07-10T14:00:22;5.10;;;2.50;;
830;SDS011;397;50.564;7.272;2022-07-10T14:02:49;4.33;;;2.50;;
830;SDS011;397;50.564;7.272;2022-07-10T14:05:17;5.33;;;2.47;;
830;SDS011;397;50.564;7.272;2022-07-10T14:07:44;6.77;;;2.27;;
830;SDS011;397;50.564;7.272;2022-07-10T14:10:12;7.63;;;2.53;;
830;SDS011;397;50.564;7.272;2022-07-10T14:12:40;5.50;;;2.20;;
830;SDS011;397;50.564;7.272;2022-07-10T14:15:08;5.30;;;2.33;;
830;SDS011;397;50.564;7.272;2022-07-10T14:17:36;4.23;;;1.97;;
830;SDS011;397;50.564;7.272;2022-07-10T14:20:04;3.80;;;2.30;;
830;SDS011;397;50.564;7.272;2022-07-10T14:22:32;5.10;;;2.50;;
830;SDS011;397;50.564;7.272;2022-07-10T14:25:00;3.80;;;2.27;;
830;SDS011;397;50.564;7.272;2022-07-10T14:27:27;4.83;;;2.80;;
830;SDS011;397;50.564;7.272;2022-07-10T14:29:56;3.47;;;2.20;;
830;SDS011;397;50.564;7.272;2022-07-10T14:32:23;5.67;;;2.80;;
830;SDS011;397;50.564;7.272;2022-07-10T14:34:51;4.10;;;2.40;;
830;SDS011;397;50.564;7.272;2022-07-10T14:37:19;4.70;;;2.53;;
830;SDS011;397;50.564;7.272;2022-07-10T14:39:48;4.10;;;2.80;;
830;SDS011;397;50.564;7.272;2022-07-10T14:42:15;6.23;;;2.60;;
830;SDS011;397;50.564;7.272;2022-07-10T14:44:43;3.33;;;2.20;;
830;SDS011;397;50.564;7.272;2022-07-10T14:47:10;4.30;;;2.40;;
830;SDS011;397;50.564;7.272;2022-07-10T14:49:38;6.30;;;3.00;;
830;SDS011;397;50.564;7.272;2022-07-10T14:52:06;4.03;;;3.07;;
830;SDS011;397;50.564;7.272;2022-07-10T14:54:33;6.03;;;3.00;;
830;SDS011;397;50.564;7.272;2022-07-10T14:57:01;5.50;;;2.73;;
830;SDS011;397;50.564;7.272;2022-07-10T14:59:29;3.60;;;3.00;;
830;SDS011;397;50.564;7.272;2022-07-10T15:01:56;7.30;;;3.90;;
830;SDS011;397;50.564;7.272;2022-07-10T15:04:24;4.03;;;3.13;;
830;SDS011;397;50.564;7.272;2022-07-10T15:06:51;4.60;;;2.57;;
830;SDS011;397;50.564;7.272;2022-07-10T15:09:19;3.70;;;2.60;;
830;SDS011;397;50.564;7.272;2022-07-10T15:11:47;8.30;;;3.23;;
830;SDS011;397;50.564;7.272;2022-07-10T15:14:14;4.50;;;3.80;;
830;SDS011;397;50.564;7.272;2022-07-10T15:16:42;6.83;;;2.47;;
830;SDS011;397;50.564;7.272;2022-07-10T15:19:09;6.37;;;3.47;;
830;SDS011;397;50.564;7.272;2022-07-10T15:21:37;3.60;;;2.80;;
830;SDS011;397;50.564;7.272;2022-07-10T15:24:05;6.40;;;3.20;;
830;SDS011;397;50.564;7.272;2022-07-10T15:26:32;3.33;;;2.60;;
830;SDS011;397;50.564;7.272;2022-07-10T15:29:00;4.40;;;3.00;;
830;SDS011;397;50.564;7.272;2022-07-10T15:31:27;5.73;;;3.10;;
830;SDS011;397;50.564;7.272;2022-07-10T15:33:55;4.40;;;2.83;;
830;SDS011;397;50.564;7.272;2022-07-10T15:36:23;5.93;;;2.83;;
830;SDS011;397;50.564;7.272;2022-07-10T15:38:50;4.90;;;3.70;;
830;SDS011;397;50.564;7.272;2022-07-10T15:41:18;4.63;;;3.47;;
830;SDS011;397;50.564;7.272;2022-07-10T15:43:45;7.53;;;3.00;;
830;SDS011;397;50.564;7.272;2022-07-10T15:46:13;5.83;;;3.20;;
830;SDS011;397;50.564;7.272;2022-07-10T15:48:41;5.90;;;2.97;;
830;SDS011;397;50.564;7.272;2022-07-10T15:51:09;5.50;;;2.87;;
830;SDS011;397;50.564;7.272;2022-07-10T15:53:36;5.40;;;2.97;;
830;SDS011;397;50.564;7.272;2022-07-10T15:56:04;9.80;;;3.77;;
830;SDS011;397;50.564;7.272;2022-07-10T15:58:32;4.70;;;2.73;;
830;SDS011;397;50.564;7.272;2022-07-10T16:01:00;3.60;;;2.40;;
830;SDS011;397;50.564;7.272;2022-07-10T16:03:27;5.00;;;2.77;;
830;SDS011;397;50.564;7.272;2022-07-10T16:05:55;4.23;;;3.07;;
830;SDS011;397;50.564;7.272;2022-07-10T16:08:23;5.00;;;3.20;;
830;SDS011;397;50.564;7.272;2022-07-10T16:10:50;5.70;;;2.70;;
830;SDS011;397;50.564;7.272;2022-07-10T16:13:18;5.67;;;3.50;;
830;SDS011;397;50.564;7.272;2022-07-10T16:15:45;4.10;;;2.60;;
830;SDS011;397;50.564;7.272;2022-07-10T16:18:13;11.80;;;5.10;;
830;SDS011;397;50.564;7.272;2022-07-10T16:20:41;7.03;;;3.37;;
830;SDS011;397;50.564;7.272;2022-07-10T16:23:09;3.50;;;2.80;;
830;SDS011;397;50.564;7.272;2022-07-10T16:25:36;4.70;;;2.87;;
830;SDS011;397;50.564;7.272;2022-07-10T16:28:22;4.20;;;3.27;;
830;SDS011;397;50.564;7.272;2022-07-10T16:30:49;4.53;;;2.83;;
830;SDS011;397;50.564;7.272;2022-07-10T16:33:17;5.77;;;3.10;;
830;SDS011;397;50.564;7.272;2022-07-10T16:35:44;5.27;;;3.20;;
830;SDS011;397;50.564;7.272;2022-07-10T16:38:12;5.70;;;3.10;;
830;SDS011;397;50.564;7.272;2022-07-10T16:40:41;7.47;;;3.20;;